Terminal Aerodrome Forecast
Issued by NWS

Home | Current Version | Previous Version | Text Only | Print | Product List | Glossary On
Versions: 1 2 3 4 5 6 7 8 9 10 11 12 13 14 15 16 17 18 19 20 21 22 23 24 25 26 27 28 29 30 31 32
000
FTUS41 KRNK 180520
TAFBCB
TAF
KBCB 180520Z 1806/1906 27006KT P6SM -RA OVC010
      TEMPO 1806/1808 5SM -RA BR OVC003
     FM181300 29013G23KT P6SM BKN035
     FM181700 30013G23KT P6SM SCT035
     FM190200 29005KT P6SM SCT035=

USA.gov is the U.S. government's official web portal to all federal, state and local government web resources and services.